sensor_id;sensor_type;location;lat;lon;timestamp;P1;durP1;ratioP1;P2;durP2;ratioP2
26435;SDS011;15351;52.408;16.826;2023-02-02T00:00:15;15.10;;;5.20;;
26435;SDS011;15351;52.408;16.826;2023-02-02T00:03:02;12.50;;;4.00;;
26435;SDS011;15351;52.408;16.826;2023-02-02T00:05:30;17.90;;;6.90;;
26435;SDS011;15351;52.408;16.826;2023-02-02T00:07:58;13.70;;;5.20;;
26435;SDS011;15351;52.408;16.826;2023-02-02T00:10:27;14.80;;;5.00;;
26435;SDS011;15351;52.408;16.826;2023-02-02T00:12:59;11.00;;;3.40;;
26435;SDS011;15351;52.408;16.826;2023-02-02T00:15:34;14.60;;;3.90;;
26435;SDS011;15351;52.408;16.826;2023-02-02T00:18:02;14.10;;;4.10;;
26435;SDS011;15351;52.408;16.826;2023-02-02T00:20:31;15.90;;;3.80;;
26435;SDS011;15351;52.408;16.826;2023-02-02T00:23:20;12.30;;;4.00;;
26435;SDS011;15351;52.408;16.826;2023-02-02T00:25:56;12.80;;;3.70;;
26435;SDS011;15351;52.408;16.826;2023-02-02T00:28:24;12.90;;;4.10;;
26435;SDS011;15351;52.408;16.826;2023-02-02T00:30:55;14.40;;;4.20;;
26435;SDS011;15351;52.408;16.826;2023-02-02T00:33:46;12.90;;;4.00;;
26435;SDS011;15351;52.408;16.826;2023-02-02T00:36:14;12.90;;;3.80;;
26435;SDS011;15351;52.408;16.826;2023-02-02T00:38:41;14.20;;;4.00;;
26435;SDS011;15351;52.408;16.826;2023-02-02T00:41:20;14.00;;;3.70;;
26435;SDS011;15351;52.408;16.826;2023-02-02T00:43:48;13.80;;;3.30;;
26435;SDS011;15351;52.408;16.826;2023-02-02T00:46:40;13.40;;;3.70;;
26435;SDS011;15351;52.408;16.826;2023-02-02T00:49:11;16.50;;;4.00;;
26435;SDS011;15351;52.408;16.826;2023-02-02T00:51:40;13.30;;;3.40;;
26435;SDS011;15351;52.408;16.826;2023-02-02T00:54:28;12.40;;;3.80;;
26435;SDS011;15351;52.408;16.826;2023-02-02T00:57:08;12.60;;;3.80;;
26435;SDS011;15351;52.408;16.826;2023-02-02T00:59:41;13.30;;;3.20;;
26435;SDS011;15351;52.408;16.826;2023-02-02T01:02:34;11.40;;;3.80;;
26435;SDS011;15351;52.408;16.826;2023-02-02T01:05:08;9.50;;;3.20;;
26435;SDS011;15351;52.408;16.826;2023-02-02T01:07:52;10.50;;;3.30;;
26435;SDS011;15351;52.408;16.826;2023-02-02T01:10:21;12.10;;;3.10;;
26435;SDS011;15351;52.408;16.826;2023-02-02T01:12:57;11.70;;;3.30;;
26435;SDS011;15351;52.408;16.826;2023-02-02T01:15:39;14.10;;;3.80;;
26435;SDS011;15351;52.408;16.826;2023-02-02T01:18:06;13.00;;;4.20;;
26435;SDS011;15351;52.408;16.826;2023-02-02T01:20:34;10.70;;;3.30;;
26435;SDS011;15351;52.408;16.826;2023-02-02T01:23:22;10.20;;;3.10;;
26435;SDS011;15351;52.408;16.826;2023-02-02T01:25:54;13.70;;;4.20;;
26435;SDS011;15351;52.408;16.826;2023-02-02T01:28:40;10.80;;;4.20;;
26435;SDS011;15351;52.408;16.826;2023-02-02T01:31:13;13.90;;;3.80;;
26435;SDS011;15351;52.408;16.826;2023-02-02T01:33:45;12.60;;;3.40;;
26435;SDS011;15351;52.408;16.826;2023-02-02T01:36:26;9.90;;;3.40;;
26435;SDS011;15351;52.408;16.826;2023-02-02T01:38:56;12.40;;;3.70;;
26435;SDS011;15351;52.408;16.826;2023-02-02T01:41:24;9.40;;;3.10;;
26435;SDS011;15351;52.408;16.826;2023-02-02T01:43:54;12.90;;;3.50;;
26435;SDS011;15351;52.408;16.826;2023-02-02T01:46:28;11.10;;;3.20;;
26435;SDS011;15351;52.408;16.826;2023-02-02T01:49:03;9.70;;;3.30;;
26435;SDS011;15351;52.408;16.826;2023-02-02T01:51:46;10.50;;;3.00;;
26435;SDS011;15351;52.408;16.826;2023-02-02T01:54:26;12.40;;;3.00;;
26435;SDS011;15351;52.408;16.826;2023-02-02T02:00:23;10.00;;;2.90;;
26435;SDS011;15351;52.408;16.826;2023-02-02T02:02:57;11.80;;;3.40;;
26435;SDS011;15351;52.408;16.826;2023-02-02T02:05:47;10.50;;;3.40;;
26435;SDS011;15351;52.408;16.826;2023-02-02T02:08:58;11.80;;;3.10;;
26435;SDS011;15351;52.408;16.826;2023-02-02T02:11:31;10.70;;;3.10;;
26435;SDS011;15351;52.408;16.826;2023-02-02T02:14:03;11.30;;;3.10;;
26435;SDS011;15351;52.408;16.826;2023-02-02T02:23:41;10.40;;;2.90;;
26435;SDS011;15351;52.408;16.826;2023-02-02T02:30:40;10.50;;;2.90;;
26435;SDS011;15351;52.408;16.826;2023-02-02T02:33:56;9.50;;;2.80;;
26435;SDS011;15351;52.408;16.826;2023-02-02T02:39:12;10.30;;;2.40;;
26435;SDS011;15351;52.408;16.826;2023-02-02T02:41:51;8.80;;;2.60;;
26435;SDS011;15351;52.408;16.826;2023-02-02T02:44:46;7.90;;;2.50;;
26435;SDS011;15351;52.408;16.826;2023-02-02T02:47:16;10.60;;;2.70;;
26435;SDS011;15351;52.408;16.826;2023-02-02T02:49:54;7.50;;;2.30;;
26435;SDS011;15351;52.408;16.826;2023-02-02T02:53:14;8.30;;;2.50;;
26435;SDS011;15351;52.408;16.826;2023-02-02T03:05:10;9.10;;;2.60;;
26435;SDS011;15351;52.408;16.826;2023-02-02T03:07:42;6.70;;;2.30;;
26435;SDS011;15351;52.408;16.826;2023-02-02T03:10:16;7.40;;;2.60;;
26435;SDS011;15351;52.408;16.826;2023-02-02T03:12:52;10.80;;;2.70;;
26435;SDS011;15351;52.408;16.826;2023-02-02T03:15:39;11.00;;;2.70;;
26435;SDS011;15351;52.408;16.826;2023-02-02T03:18:09;9.20;;;2.50;;
26435;SDS011;15351;52.408;16.826;2023-02-02T03:20:40;8.10;;;2.60;;
26435;SDS011;15351;52.408;16.826;2023-02-02T03:23:16;8.40;;;2.40;;
26435;SDS011;15351;52.408;16.826;2023-02-02T03:25:43;7.70;;;2.50;;
26435;SDS011;15351;52.408;16.826;2023-02-02T03:28:15;8.50;;;2.80;;
26435;SDS011;15351;52.408;16.826;2023-02-02T03:30:44;7.40;;;2.50;;
26435;SDS011;15351;52.408;16.826;2023-02-02T03:33:13;8.70;;;2.40;;
26435;SDS011;15351;52.408;16.826;2023-02-02T03:35:42;10.40;;;2.80;;
26435;SDS011;15351;52.408;16.826;2023-02-02T03:38:14;8.50;;;2.50;;
26435;SDS011;15351;52.408;16.826;2023-02-02T03:40:43;6.70;;;2.30;;
26435;SDS011;15351;52.408;16.826;2023-02-02T03:43:28;8.90;;;2.50;;
26435;SDS011;15351;52.408;16.826;2023-02-02T03:45:57;8.70;;;2.30;;
26435;SDS011;15351;52.408;16.826;2023-02-02T03:48:36;9.70;;;2.70;;
26435;SDS011;15351;52.408;16.826;2023-02-02T03:51:09;8.60;;;2.50;;
26435;SDS011;15351;52.408;16.826;2023-02-02T03:53:40;9.10;;;2.80;;
26435;SDS011;15351;52.408;16.826;2023-02-02T03:56:10;7.40;;;2.50;;
26435;SDS011;15351;52.408;16.826;2023-02-02T03:58:37;9.70;;;2.80;;
26435;SDS011;15351;52.408;16.826;2023-02-02T04:01:08;11.70;;;3.30;;
26435;SDS011;15351;52.408;16.826;2023-02-02T04:03:38;11.50;;;3.80;;
26435;SDS011;15351;52.408;16.826;2023-02-02T04:06:07;9.40;;;2.60;;
26435;SDS011;15351;52.408;16.826;2023-02-02T04:08:42;6.80;;;2.30;;
26435;SDS011;15351;52.408;16.826;2023-02-02T04:11:10;9.10;;;2.80;;
26435;SDS011;15351;52.408;16.826;2023-02-02T04:13:40;7.60;;;2.20;;
26435;SDS011;15351;52.408;16.826;2023-02-02T04:16:17;6.80;;;2.00;;
26435;SDS011;15351;52.408;16.826;2023-02-02T04:18:44;7.60;;;2.00;;
26435;SDS011;15351;52.408;16.826;2023-02-02T04:21:21;5.20;;;1.80;;
26435;SDS011;15351;52.408;16.826;2023-02-02T04:23:57;6.70;;;1.60;;
26435;SDS011;15351;52.408;16.826;2023-02-02T04:26:25;5.90;;;1.70;;
26435;SDS011;15351;52.408;16.826;2023-02-02T04:28:55;5.80;;;1.60;;
26435;SDS011;15351;52.408;16.826;2023-02-02T04:31:24;5.80;;;1.50;;
26435;SDS011;15351;52.408;16.826;2023-02-02T04:33:53;4.50;;;1.40;;
26435;SDS011;15351;52.408;16.826;2023-02-02T04:36:21;3.80;;;1.40;;
26435;SDS011;15351;52.408;16.826;2023-02-02T04:38:51;3.00;;;1.20;;
26435;SDS011;15351;52.408;16.826;2023-02-02T04:41:21;3.80;;;1.40;;
26435;SDS011;15351;52.408;16.826;2023-02-02T04:43:49;2.90;;;1.10;;
26435;SDS011;15351;52.408;16.826;2023-02-02T04:46:16;2.30;;;1.00;;
26435;SDS011;15351;52.408;16.826;2023-02-02T04:48:44;2.40;;;1.10;;
26435;SDS011;15351;52.408;16.826;2023-02-02T04:51:14;2.60;;;0.90;;
26435;SDS011;15351;52.408;16.826;2023-02-02T04:53:44;2.20;;;0.90;;
26435;SDS011;15351;52.408;16.826;2023-02-02T04:56:12;1.90;;;0.90;;
26435;SDS011;15351;52.408;16.826;2023-02-02T04:58:43;1.90;;;0.90;;
26435;SDS011;15351;52.408;16.826;2023-02-02T05:01:16;2.30;;;1.00;;
26435;SDS011;15351;52.408;16.826;2023-02-02T05:03:46;2.80;;;0.80;;
26435;SDS011;15351;52.408;16.826;2023-02-02T05:06:14;2.40;;;0.90;;
26435;SDS011;15351;52.408;16.826;2023-02-02T05:08:55;1.70;;;0.90;;
26435;SDS011;15351;52.408;16.826;2023-02-02T05:11:24;1.80;;;0.80;;
26435;SDS011;15351;52.408;16.826;2023-02-02T05:13:52;2.30;;;0.90;;
26435;SDS011;15351;52.408;16.826;2023-02-02T05:16:22;2.00;;;1.00;;
26435;SDS011;15351;52.408;16.826;2023-02-02T05:18:52;1.80;;;0.90;;
26435;SDS011;15351;52.408;16.826;2023-02-02T05:21:22;1.30;;;0.70;;
26435;SDS011;15351;52.408;16.826;2023-02-02T05:23:51;1.50;;;0.90;;
26435;SDS011;15351;52.408;16.826;2023-02-02T05:26:23;2.70;;;1.10;;
26435;SDS011;15351;52.408;16.826;2023-02-02T05:28:55;2.30;;;1.30;;
26435;SDS011;15351;52.408;16.826;2023-02-02T05:31:39;2.70;;;1.20;;
26435;SDS011;15351;52.408;16.826;2023-02-02T05:34:08;3.40;;;1.40;;
26435;SDS011;15351;52.408;16.826;2023-02-02T05:36:41;2.90;;;1.40;;
26435;SDS011;15351;52.408;16.826;2023-02-02T05:39:09;2.50;;;1.40;;
26435;SDS011;15351;52.408;16.826;2023-02-02T05:41:37;2.10;;;1.20;;
26435;SDS011;15351;52.408;16.826;2023-02-02T05:44:23;2.50;;;1.30;;
26435;SDS011;15351;52.408;16.826;2023-02-02T05:46:51;1.80;;;1.10;;
26435;SDS011;15351;52.408;16.826;2023-02-02T05:49:18;1.40;;;1.10;;
26435;SDS011;15351;52.408;16.826;2023-02-02T05:51:47;2.00;;;1.00;;
26435;SDS011;15351;52.408;16.826;2023-02-02T05:54:18;2.20;;;1.10;;
26435;SDS011;15351;52.408;16.826;2023-02-02T05:56:47;3.60;;;1.20;;
26435;SDS011;15351;52.408;16.826;2023-02-02T05:59:20;2.00;;;1.10;;
26435;SDS011;15351;52.408;16.826;2023-02-02T06:01:49;1.90;;;1.20;;
26435;SDS011;15351;52.408;16.826;2023-02-02T06:04:22;2.00;;;1.10;;
26435;SDS011;15351;52.408;16.826;2023-02-02T06:06:53;1.50;;;1.00;;
26435;SDS011;15351;52.408;16.826;2023-02-02T06:09:23;2.30;;;1.10;;
26435;SDS011;15351;52.408;16.826;2023-02-02T06:11:51;1.80;;;0.90;;
26435;SDS011;15351;52.408;16.826;2023-02-02T06:14:18;1.70;;;1.10;;
26435;SDS011;15351;52.408;16.826;2023-02-02T06:16:46;2.30;;;1.20;;
26435;SDS011;15351;52.408;16.826;2023-02-02T06:19:19;3.30;;;1.10;;
26435;SDS011;15351;52.408;16.826;2023-02-02T06:21:47;1.70;;;1.00;;
26435;SDS011;15351;52.408;16.826;2023-02-02T06:24:15;2.30;;;1.00;;
26435;SDS011;15351;52.408;16.826;2023-02-02T06:26:43;2.70;;;1.00;;
26435;SDS011;15351;52.408;16.826;2023-02-02T06:29:11;2.00;;;1.00;;
26435;SDS011;15351;52.408;16.826;2023-02-02T06:32:01;2.80;;;1.30;;
26435;SDS011;15351;52.408;16.826;2023-02-02T06:34:40;2.90;;;1.60;;
26435;SDS011;15351;52.408;16.826;2023-02-02T06:37:07;3.30;;;1.50;;
26435;SDS011;15351;52.408;16.826;2023-02-02T06:39:54;2.50;;;1.50;;
26435;SDS011;15351;52.408;16.826;2023-02-02T06:42:22;3.00;;;1.60;;
26435;SDS011;15351;52.408;16.826;2023-02-02T06:44:50;3.30;;;1.50;;
26435;SDS011;15351;52.408;16.826;2023-02-02T06:47:17;3.20;;;1.60;;
26435;SDS011;15351;52.408;16.826;2023-02-02T06:49:45;3.80;;;1.80;;
26435;SDS011;15351;52.408;16.826;2023-02-02T06:52:17;2.80;;;1.80;;
26435;SDS011;15351;52.408;16.826;2023-02-02T06:54:44;3.20;;;1.60;;
26435;SDS011;15351;52.408;16.826;2023-02-02T06:57:17;3.80;;;1.80;;
26435;SDS011;15351;52.408;16.826;2023-02-02T06:59:45;3.60;;;1.80;;
26435;SDS011;15351;52.408;16.826;2023-02-02T07:02:13;4.20;;;2.00;;
26435;SDS011;15351;52.408;16.826;2023-02-02T07:04:41;4.30;;;2.00;;
26435;SDS011;15351;52.408;16.826;2023-02-02T07:07:22;4.20;;;2.20;;
26435;SDS011;15351;52.408;16.826;2023-02-02T07:09:53;6.00;;;1.90;;
26435;SDS011;15351;52.408;16.826;2023-02-02T07:12:23;4.70;;;2.00;;
26435;SDS011;15351;52.408;16.826;2023-02-02T07:14:53;4.10;;;2.10;;
26435;SDS011;15351;52.408;16.826;2023-02-02T07:17:35;3.30;;;1.80;;
26435;SDS011;15351;52.408;16.826;2023-02-02T07:20:20;3.50;;;1.80;;
26435;SDS011;15351;52.408;16.826;2023-02-02T07:22:51;5.30;;;1.90;;
26435;SDS011;15351;52.408;16.826;2023-02-02T07:25:23;3.40;;;1.90;;
26435;SDS011;15351;52.408;16.826;2023-02-02T07:28:04;4.20;;;2.10;;
26435;SDS011;15351;52.408;16.826;2023-02-02T07:30:37;4.60;;;2.00;;
26435;SDS011;15351;52.408;16.826;2023-02-02T07:33:07;3.50;;;1.90;;
26435;SDS011;15351;52.408;16.826;2023-02-02T07:35:37;4.40;;;2.20;;
26435;SDS011;15351;52.408;16.826;2023-02-02T07:38:13;3.30;;;1.80;;
26435;SDS011;15351;52.408;16.826;2023-02-02T07:40:51;3.50;;;1.90;;
26435;SDS011;15351;52.408;16.826;2023-02-02T07:43:30;4.30;;;2.30;;
26435;SDS011;15351;52.408;16.826;2023-02-02T07:45:59;3.60;;;2.20;;
26435;SDS011;15351;52.408;16.826;2023-02-02T07:48:30;4.10;;;2.20;;
26435;SDS011;15351;52.408;16.826;2023-02-02T07:51:00;4.10;;;2.40;;
26435;SDS011;15351;52.408;16.826;2023-02-02T07:53:31;5.40;;;2.50;;
26435;SDS011;15351;52.408;16.826;2023-02-02T07:59:05;4.60;;;2.60;;
26435;SDS011;15351;52.408;16.826;2023-02-02T08:01:32;4.10;;;2.40;;
26435;SDS011;15351;52.408;16.826;2023-02-02T08:04:00;4.90;;;2.70;;
26435;SDS011;15351;52.408;16.826;2023-02-02T08:06:49;3.40;;;2.20;;
26435;SDS011;15351;52.408;16.826;2023-02-02T08:09:27;4.60;;;2.30;;
26435;SDS011;15351;52.408;16.826;2023-02-02T08:11:55;5.40;;;3.10;;
26435;SDS011;15351;52.408;16.826;2023-02-02T08:14:29;5.30;;;2.80;;
26435;SDS011;15351;52.408;16.826;2023-02-02T08:17:04;6.00;;;2.70;;
26435;SDS011;15351;52.408;16.826;2023-02-02T08:19:33;5.00;;;2.60;;
26435;SDS011;15351;52.408;16.826;2023-02-02T08:22:00;5.60;;;3.00;;
26435;SDS011;15351;52.408;16.826;2023-02-02T08:24:32;5.70;;;3.40;;
26435;SDS011;15351;52.408;16.826;2023-02-02T08:27:06;5.80;;;3.00;;
26435;SDS011;15351;52.408;16.826;2023-02-02T08:29:37;6.70;;;2.80;;
26435;SDS011;15351;52.408;16.826;2023-02-02T08:32:06;5.40;;;2.70;;
26435;SDS011;15351;52.408;16.826;2023-02-02T08:34:36;5.80;;;2.80;;
26435;SDS011;15351;52.408;16.826;2023-02-02T08:37:03;6.20;;;2.80;;
26435;SDS011;15351;52.408;16.826;2023-02-02T08:39:45;5.10;;;2.70;;
26435;SDS011;15351;52.408;16.826;2023-02-02T08:42:23;4.60;;;2.30;;
26435;SDS011;15351;52.408;16.826;2023-02-02T08:44:51;4.40;;;2.90;;
26435;SDS011;15351;52.408;16.826;2023-02-02T08:47:23;8.20;;;4.10;;
26435;SDS011;15351;52.408;16.826;2023-02-02T08:49:55;5.50;;;2.90;;
26435;SDS011;15351;52.408;16.826;2023-02-02T08:52:24;4.30;;;2.20;;
26435;SDS011;15351;52.408;16.826;2023-02-02T08:54:51;4.20;;;2.40;;
26435;SDS011;15351;52.408;16.826;2023-02-02T08:57:33;5.60;;;2.40;;
26435;SDS011;15351;52.408;16.826;2023-02-02T09:00:08;5.10;;;2.70;;
26435;SDS011;15351;52.408;16.826;2023-02-02T09:02:38;7.10;;;3.10;;
26435;SDS011;15351;52.408;16.826;2023-02-02T09:05:10;5.60;;;2.80;;
26435;SDS011;15351;52.408;16.826;2023-02-02T09:07:46;6.20;;;3.00;;
26435;SDS011;15351;52.408;16.826;2023-02-02T09:10:14;5.80;;;3.30;;
26435;SDS011;15351;52.408;16.826;2023-02-02T09:12:42;5.90;;;3.60;;
26435;SDS011;15351;52.408;16.826;2023-02-02T09:15:09;8.60;;;4.30;;
26435;SDS011;15351;52.408;16.826;2023-02-02T09:17:36;6.80;;;3.60;;
26435;SDS011;15351;52.408;16.826;2023-02-02T09:20:03;8.80;;;4.20;;
26435;SDS011;15351;52.408;16.826;2023-02-02T09:22:31;8.90;;;4.20;;
26435;SDS011;15351;52.408;16.826;2023-02-02T09:24:59;10.40;;;5.00;;
26435;SDS011;15351;52.408;16.826;2023-02-02T09:27:27;8.90;;;5.10;;
26435;SDS011;15351;52.408;16.826;2023-02-02T09:29:55;5.80;;;3.50;;
26435;SDS011;15351;52.408;16.826;2023-02-02T09:32:24;4.50;;;2.40;;
26435;SDS011;15351;52.408;16.826;2023-02-02T09:34:52;4.50;;;2.10;;
26435;SDS011;15351;52.408;16.826;2023-02-02T09:37:20;5.00;;;2.10;;
26435;SDS011;15351;52.408;16.826;2023-02-02T09:39:47;6.40;;;2.80;;
26435;SDS011;15351;52.408;16.826;2023-02-02T09:43:01;5.70;;;2.80;;
26435;SDS011;15351;52.408;16.826;2023-02-02T09:45:21;6.10;;;2.90;;
26435;SDS011;15351;52.408;16.826;2023-02-02T09:48:18;5.70;;;2.50;;
26435;SDS011;15351;52.408;16.826;2023-02-02T09:50:56;3.70;;;2.00;;
26435;SDS011;15351;52.408;16.826;2023-02-02T09:53:40;5.40;;;2.20;;
26435;SDS011;15351;52.408;16.826;2023-02-02T09:56:26;4.30;;;2.10;;
26435;SDS011;15351;52.408;16.826;2023-02-02T09:59:03;4.70;;;2.30;;
26435;SDS011;15351;52.408;16.826;2023-02-02T10:01:33;5.50;;;2.50;;
26435;SDS011;15351;52.408;16.826;2023-02-02T10:06:51;5.00;;;2.40;;
26435;SDS011;15351;52.408;16.826;2023-02-02T10:09:33;6.20;;;2.20;;
26435;SDS011;15351;52.408;16.826;2023-02-02T10:18:12;4.10;;;2.30;;
26435;SDS011;15351;52.408;16.826;2023-02-02T10:23:27;7.20;;;2.60;;
26435;SDS011;15351;52.408;16.826;2023-02-02T10:35:09;9.60;;;4.10;;
26435;SDS011;15351;52.408;16.826;2023-02-02T10:41:41;7.90;;;3.50;;
26435;SDS011;15351;52.408;16.826;2023-02-02T10:44:32;4.60;;;2.30;;
26435;SDS011;15351;52.408;16.826;2023-02-02T10:50:31;4.80;;;2.40;;
26435;SDS011;15351;52.408;16.826;2023-02-02T10:53:05;4.00;;;2.00;;
26435;SDS011;15351;52.408;16.826;2023-02-02T10:55:54;3.90;;;2.20;;
26435;SDS011;15351;52.408;16.826;2023-02-02T10:58:28;5.90;;;2.50;;
26435;SDS011;15351;52.408;16.826;2023-02-02T11:00:58;4.80;;;2.40;;
26435;SDS011;15351;52.408;16.826;2023-02-02T11:03:31;4.90;;;2.50;;
26435;SDS011;15351;52.408;16.826;2023-02-02T11:06:26;4.80;;;2.30;;
26435;SDS011;15351;52.408;16.826;2023-02-02T11:09:12;5.20;;;2.40;;
26435;SDS011;15351;52.408;16.826;2023-02-02T11:12:04;7.10;;;2.60;;
26435;SDS011;15351;52.408;16.826;2023-02-02T11:14:39;4.40;;;2.20;;
26435;SDS011;15351;52.408;16.826;2023-02-02T11:17:23;5.60;;;2.40;;
26435;SDS011;15351;52.408;16.826;2023-02-02T11:20:20;4.10;;;2.20;;
26435;SDS011;15351;52.408;16.826;2023-02-02T11:23:04;4.20;;;1.80;;
26435;SDS011;15351;52.408;16.826;2023-02-02T11:25:35;4.30;;;1.70;;
26435;SDS011;15351;52.408;16.826;2023-02-02T11:28:11;6.30;;;2.10;;
26435;SDS011;15351;52.408;16.826;2023-02-02T11:30:48;4.60;;;2.30;;
26435;SDS011;15351;52.408;16.826;2023-02-02T11:33:30;3.50;;;1.90;;
26435;SDS011;15351;52.408;16.826;2023-02-02T11:36:03;2.40;;;1.70;;
26435;SDS011;15351;52.408;16.826;2023-02-02T11:38:43;3.70;;;2.00;;
26435;SDS011;15351;52.408;16.826;2023-02-02T11:41:15;4.30;;;1.90;;
26435;SDS011;15351;52.408;16.826;2023-02-02T11:43:48;4.70;;;2.20;;
26435;SDS011;15351;52.408;16.826;2023-02-02T11:46:23;4.40;;;2.20;;
26435;SDS011;15351;52.408;16.826;2023-02-02T11:49:01;5.60;;;3.10;;
26435;SDS011;15351;52.408;16.826;2023-02-02T11:51:37;3.90;;;2.40;;
26435;SDS011;15351;52.408;16.826;2023-02-02T11:54:19;4.20;;;2.20;;
26435;SDS011;15351;52.408;16.826;2023-02-02T11:57:00;5.10;;;2.60;;
26435;SDS011;15351;52.408;16.826;2023-02-02T11:59:37;4.20;;;2.30;;
26435;SDS011;15351;52.408;16.826;2023-02-02T12:02:23;3.90;;;2.00;;
26435;SDS011;15351;52.408;16.826;2023-02-02T12:05:34;3.00;;;1.70;;
26435;SDS011;15351;52.408;16.826;2023-02-02T12:07:52;3.10;;;2.00;;
26435;SDS011;15351;52.408;16.826;2023-02-02T12:10:21;6.00;;;2.80;;
26435;SDS011;15351;52.408;16.826;2023-02-02T12:13:07;3.60;;;1.80;;
26435;SDS011;15351;52.408;16.826;2023-02-02T12:18:59;2.00;;;1.50;;
26435;SDS011;15351;52.408;16.826;2023-02-02T12:24:34;3.80;;;2.00;;
26435;SDS011;15351;52.408;16.826;2023-02-02T12:35:54;6.90;;;5.30;;
26435;SDS011;15351;52.408;16.826;2023-02-02T12:38:53;14.00;;;10.80;;
26435;SDS011;15351;52.408;16.826;2023-02-02T12:44:48;14.20;;;10.00;;
26435;SDS011;15351;52.408;16.826;2023-02-02T12:58:59;4.40;;;2.80;;
26435;SDS011;15351;52.408;16.826;2023-02-02T13:02:01;4.20;;;2.50;;
26435;SDS011;15351;52.408;16.826;2023-02-02T13:12:54;5.00;;;2.50;;
26435;SDS011;15351;52.408;16.826;2023-02-02T13:15:32;4.50;;;2.40;;
26435;SDS011;15351;52.408;16.826;2023-02-02T13:18:18;4.00;;;2.60;;
26435;SDS011;15351;52.408;16.826;2023-02-02T13:21:12;3.40;;;2.20;;
26435;SDS011;15351;52.408;16.826;2023-02-02T13:23:58;4.60;;;2.40;;
26435;SDS011;15351;52.408;16.826;2023-02-02T13:27:00;4.00;;;2.40;;
26435;SDS011;15351;52.408;16.826;2023-02-02T13:29:44;3.20;;;2.20;;
26435;SDS011;15351;52.408;16.826;2023-02-02T13:32:29;3.40;;;2.20;;
26435;SDS011;15351;52.408;16.826;2023-02-02T13:35:34;4.20;;;2.20;;
26435;SDS011;15351;52.408;16.826;2023-02-02T13:38:43;4.40;;;2.00;;
26435;SDS011;15351;52.408;16.826;2023-02-02T13:41:32;3.10;;;1.90;;
26435;SDS011;15351;52.408;16.826;2023-02-02T13:44:24;4.30;;;2.20;;
26435;SDS011;15351;52.408;16.826;2023-02-02T13:47:12;5.80;;;3.70;;
26435;SDS011;15351;52.408;16.826;2023-02-02T13:50:05;5.30;;;2.50;;
26435;SDS011;15351;52.408;16.826;2023-02-02T13:52:58;4.30;;;2.30;;
26435;SDS011;15351;52.408;16.826;2023-02-02T14:01:56;5.60;;;2.90;;
26435;SDS011;15351;52.408;16.826;2023-02-02T14:04:26;8.20;;;4.50;;
26435;SDS011;15351;52.408;16.826;2023-02-02T14:06:58;5.50;;;3.30;;
26435;SDS011;15351;52.408;16.826;2023-02-02T14:09:39;6.60;;;4.10;;
26435;SDS011;15351;52.408;16.826;2023-02-02T14:12:43;7.40;;;4.90;;
26435;SDS011;15351;52.408;16.826;2023-02-02T14:15:38;7.40;;;4.60;;
26435;SDS011;15351;52.408;16.826;2023-02-02T14:18:09;5.40;;;2.70;;
26435;SDS011;15351;52.408;16.826;2023-02-02T14:20:45;5.10;;;2.30;;
26435;SDS011;15351;52.408;16.826;2023-02-02T14:23:48;6.20;;;4.20;;
26435;SDS011;15351;52.408;16.826;2023-02-02T14:26:57;4.90;;;2.50;;
26435;SDS011;15351;52.408;16.826;2023-02-02T14:51:19;5.30;;;3.20;;
26435;SDS011;15351;52.408;16.826;2023-02-02T15:04:46;7.40;;;3.40;;
26435;SDS011;15351;52.408;16.826;2023-02-02T15:11:28;4.90;;;3.30;;
26435;SDS011;15351;52.408;16.826;2023-02-02T15:18:36;4.90;;;2.90;;
26435;SDS011;15351;52.408;16.826;2023-02-02T15:21:08;5.20;;;3.00;;
26435;SDS011;15351;52.408;16.826;2023-02-02T15:23:40;6.00;;;3.60;;
26435;SDS011;15351;52.408;16.826;2023-02-02T15:26:28;5.70;;;4.00;;
26435;SDS011;15351;52.408;16.826;2023-02-02T15:32:17;7.40;;;4.80;;
26435;SDS011;15351;52.408;16.826;2023-02-02T15:34:59;8.50;;;6.00;;
26435;SDS011;15351;52.408;16.826;2023-02-02T15:37:31;9.90;;;6.60;;
26435;SDS011;15351;52.408;16.826;2023-02-02T15:40:19;8.80;;;5.90;;
26435;SDS011;15351;52.408;16.826;2023-02-02T15:43:04;8.30;;;4.70;;
26435;SDS011;15351;52.408;16.826;2023-02-02T15:45:41;7.30;;;4.30;;
26435;SDS011;15351;52.408;16.826;2023-02-02T15:54:56;7.30;;;4.00;;
26435;SDS011;15351;52.408;16.826;2023-02-02T15:58:19;6.80;;;4.90;;
26435;SDS011;15351;52.408;16.826;2023-02-02T16:01:13;5.40;;;3.90;;
26435;SDS011;15351;52.408;16.826;2023-02-02T16:06:34;13.70;;;8.00;;
26435;SDS011;15351;52.408;16.826;2023-02-02T16:10:03;7.50;;;5.20;;
26435;SDS011;15351;52.408;16.826;2023-02-02T16:13:31;7.60;;;4.80;;
26435;SDS011;15351;52.408;16.826;2023-02-02T16:16:54;6.20;;;3.90;;
26435;SDS011;15351;52.408;16.826;2023-02-02T16:19:50;5.70;;;3.60;;
26435;SDS011;15351;52.408;16.826;2023-02-02T16:22:50;6.30;;;4.00;;
26435;SDS011;15351;52.408;16.826;2023-02-02T16:25:35;8.10;;;3.80;;
26435;SDS011;15351;52.408;16.826;2023-02-02T16:28:23;6.50;;;4.30;;
26435;SDS011;15351;52.408;16.826;2023-02-02T16:30:52;7.80;;;4.50;;
26435;SDS011;15351;52.408;16.826;2023-02-02T16:33:29;7.00;;;4.10;;
26435;SDS011;15351;52.408;16.826;2023-02-02T16:36:19;7.80;;;4.50;;
26435;SDS011;15351;52.408;16.826;2023-02-02T16:38:48;9.50;;;6.50;;
26435;SDS011;15351;52.408;16.826;2023-02-02T16:41:28;9.90;;;6.80;;
26435;SDS011;15351;52.408;16.826;2023-02-02T16:44:41;13.00;;;7.50;;
26435;SDS011;15351;52.408;16.826;2023-02-02T16:47:30;11.80;;;7.40;;
26435;SDS011;15351;52.408;16.826;2023-02-02T16:50:24;8.00;;;4.70;;
26435;SDS011;15351;52.408;16.826;2023-02-02T16:53:03;11.20;;;5.40;;
26435;SDS011;15351;52.408;16.826;2023-02-02T16:55:38;9.50;;;5.40;;
26435;SDS011;15351;52.408;16.826;2023-02-02T16:58:28;9.30;;;5.70;;
26435;SDS011;15351;52.408;16.826;2023-02-02T17:01:39;6.50;;;4.30;;
26435;SDS011;15351;52.408;16.826;2023-02-02T17:04:38;7.30;;;4.30;;
26435;SDS011;15351;52.408;16.826;2023-02-02T17:07:28;6.40;;;3.60;;
26435;SDS011;15351;52.408;16.826;2023-02-02T17:12:42;7.20;;;4.20;;
26435;SDS011;15351;52.408;16.826;2023-02-02T17:18:26;17.50;;;10.20;;
26435;SDS011;15351;52.408;16.826;2023-02-02T17:20:56;12.00;;;7.40;;
26435;SDS011;15351;52.408;16.826;2023-02-02T17:23:37;10.40;;;5.70;;
26435;SDS011;15351;52.408;16.826;2023-02-02T17:26:07;8.90;;;5.10;;
26435;SDS011;15351;52.408;16.826;2023-02-02T17:28:39;6.90;;;4.70;;
26435;SDS011;15351;52.408;16.826;2023-02-02T17:31:09;6.20;;;4.10;;
26435;SDS011;15351;52.408;16.826;2023-02-02T17:33:39;8.40;;;5.40;;
26435;SDS011;15351;52.408;16.826;2023-02-02T17:36:09;11.90;;;6.50;;
26435;SDS011;15351;52.408;16.826;2023-02-02T17:38:38;10.60;;;5.70;;
26435;SDS011;15351;52.408;16.826;2023-02-02T17:41:06;10.00;;;5.60;;
26435;SDS011;15351;52.408;16.826;2023-02-02T17:43:35;8.80;;;4.80;;
26435;SDS011;15351;52.408;16.826;2023-02-02T17:46:02;9.70;;;5.50;;
26435;SDS011;15351;52.408;16.826;2023-02-02T17:48:33;9.30;;;4.90;;
26435;SDS011;15351;52.408;16.826;2023-02-02T17:51:22;12.10;;;6.50;;
26435;SDS011;15351;52.408;16.826;2023-02-02T17:53:59;12.50;;;6.70;;
26435;SDS011;15351;52.408;16.826;2023-02-02T17:56:49;13.50;;;6.90;;
26435;SDS011;15351;52.408;16.826;2023-02-02T17:59:18;12.90;;;7.30;;
26435;SDS011;15351;52.408;16.826;2023-02-02T18:01:45;12.20;;;6.20;;
26435;SDS011;15351;52.408;16.826;2023-02-02T18:04:19;12.30;;;5.80;;
26435;SDS011;15351;52.408;16.826;2023-02-02T18:06:52;10.50;;;6.00;;
26435;SDS011;15351;52.408;16.826;2023-02-02T18:09:26;11.80;;;6.90;;